.
WxDataArchive / Data Records for 2006-08-17
2006-08-16 August 2006 2006-08-18

Data Records for Thursday, 17 August 2006

Time	Temp	Chill	HIndex	Humid	Dewpt	 Wind 	HiWind	WindDir	Rain 	Barom 
-----	----	-----	------	-----	-----	------	------	-------	-----	----- 
00:00	68.1	68.1	68.1	72	58.7	0	1	68	0.00	30.121 
00:05	67.9	67.9	67.9	72	58.5	0	2	68	0.00	30.121 
00:10	67.8	67.8	67.8	73	58.8	0	2	68	0.00	30.121 
00:15	67.6	67.6	67.6	73	58.6	0	1	68	0.00	30.121 
00:20	67.3	67.3	67.3	74	58.7	0	1	68	0.00	30.121 
00:25	67.1	67.1	67.1	74	58.5	0	1	68	0.00	30.121 
00:30	66.8	66.8	66.8	75	58.6	0	0	---	0.00	30.116 
00:35	66.4	66.4	66.4	75	58.2	0	0	---	0.00	30.116 
00:40	66.0	66.0	66.0	76	58.2	0	0	---	0.00	30.116 
00:45	65.8	65.8	65.8	77	58.4	0	1	68	0.00	30.116 
00:50	65.6	65.6	65.6	78	58.5	0	1	68	0.00	30.116 
00:55	65.5	65.5	65.5	78	58.5	0	1	68	0.00	30.116 
01:00	65.5	65.5	65.5	78	58.5	0	1	68	0.00	30.115 
01:05	65.5	65.5	65.5	78	58.5	0	2	68	0.00	30.115 
01:10	65.3	65.3	65.3	78	58.3	0	1	68	0.00	30.115 
01:15	65.0	65.0	65.0	79	58.3	0	0	---	0.00	30.117 
01:20	64.7	64.7	64.7	79	58.0	0	0	---	0.00	30.117 
01:25	64.3	64.3	64.3	80	58.0	0	1	68	0.00	30.117 
01:30	64.2	64.2	64.2	81	58.2	0	1	68	0.00	30.117 
01:35	64.2	64.2	64.2	81	58.2	0	1	68	0.00	30.117 
01:40	64.0	64.0	64.0	81	58.0	0	0	---	0.00	30.117 
01:45	63.7	63.7	63.7	81	57.8	0	0	---	0.00	30.123 
01:50	63.4	63.4	63.4	82	57.8	0	0	---	0.00	30.123 
01:55	63.1	63.1	63.1	83	57.8	0	0	---	0.00	30.123 
02:00	62.7	62.7	62.7	83	57.5	0	0	---	0.00	30.124 
02:05	62.4	62.4	62.4	84	57.5	0	0	---	0.00	30.124 
02:10	62.3	62.3	62.3	84	57.4	0	0	---	0.00	30.124 
02:15	62.0	62.0	62.0	85	57.4	0	0	---	0.00	30.119 
02:20	61.8	61.8	61.8	85	57.2	0	0	---	0.00	30.119 
02:25	61.6	61.6	61.6	86	57.4	0	0	---	0.00	30.119 
02:30	61.3	61.3	61.3	86	57.1	0	0	---	0.00	30.119 
02:35	61.2	61.2	61.2	86	57.0	0	0	---	0.00	30.119 
02:40	61.0	61.0	61.0	87	57.1	0	0	---	0.00	30.119 
02:45	60.9	60.9	60.9	88	57.3	0	0	---	0.00	30.120 
02:50	60.7	60.7	60.7	88	57.1	0	0	---	0.00	30.120 
02:55	60.5	60.5	60.5	88	56.9	0	0	---	0.00	30.120 
03:00	60.4	60.4	60.4	88	56.8	0	0	---	0.00	30.118 
03:05	60.2	60.2	60.2	88	56.6	0	1	68	0.00	30.118 
03:10	60.2	60.2	60.2	89	56.9	0	0	---	0.00	30.118 
03:15	60.2	60.2	60.2	89	56.9	0	0	---	0.00	30.116 
03:20	60.2	60.2	60.2	89	56.9	0	0	---	0.00	30.116 
03:25	60.2	60.2	60.2	89	56.9	0	0	---	0.00	30.116 
03:30	60.2	60.2	60.2	89	56.9	0	0	---	0.00	30.118 
03:35	60.1	60.1	60.1	89	56.8	0	0	---	0.00	30.118 
03:40	60.1	60.1	60.1	90	57.2	0	0	---	0.00	30.118 
03:45	60.1	60.1	60.1	90	57.2	0	0	---	0.00	30.127 
03:50	59.9	59.9	59.9	90	57.0	0	0	---	0.00	30.127 
03:55	59.9	59.9	59.9	90	57.0	0	0	---	0.00	30.127 
04:00	59.9	59.9	59.9	90	57.0	0	0	---	0.00	30.125 
04:05	59.9	59.9	59.9	90	57.0	0	0	---	0.00	30.125 
04:10	59.9	59.9	59.9	90	57.0	0	0	---	0.00	30.125 
04:15	59.8	59.8	59.8	91	57.2	0	0	---	0.00	30.118 
04:20	59.8	59.8	59.8	91	57.2	0	0	---	0.00	30.118 
04:25	59.8	59.8	59.8	90	56.9	0	0	---	0.00	30.118 
04:30	59.8	59.8	59.8	90	56.9	0	0	---	0.00	30.123 
04:35	59.8	59.8	59.8	90	56.9	0	0	---	0.00	30.123 
04:40	59.6	59.6	59.6	90	56.7	0	0	---	0.00	30.123 
04:45	59.6	59.6	59.6	90	56.7	0	0	---	0.00	30.129 
04:50	59.5	59.5	59.5	90	56.6	0	0	---	0.00	30.129 
04:55	59.5	59.5	59.5	90	56.6	0	0	---	0.00	30.129 
05:00	59.5	59.5	59.5	90	56.6	0	0	---	0.00	30.130 
05:05	59.3	59.3	59.3	90	56.4	0	0	---	0.00	30.130 
05:10	59.2	59.2	59.2	89	56.0	0	0	---	0.00	30.130 
05:15	59.2	59.2	59.2	90	56.3	0	0	---	0.00	30.132 
05:20	59.0	59.0	59.0	89	55.8	0	0	---	0.00	30.132 
05:25	58.9	58.9	58.9	90	56.0	0	0	---	0.00	30.132 
05:30	58.7	58.7	58.7	90	55.8	0	0	---	0.00	30.132 
05:35	58.7	58.7	58.7	90	55.8	0	0	---	0.00	30.132 
05:40	58.7	58.7	58.7	90	55.8	0	0	---	0.00	30.132 
05:45	58.7	58.7	58.7	90	55.8	0	0	---	0.00	30.132 
05:50	58.7	58.7	58.7	90	55.8	0	0	---	0.00	30.132 
05:55	58.7	58.7	58.7	90	55.8	0	0	---	0.00	30.132 
06:00	58.7	58.7	58.7	90	55.8	0	0	---	0.00	30.133 
06:05	58.7	58.7	58.7	89	55.5	0	0	---	0.00	30.133 
06:10	58.6	58.6	58.6	89	55.4	0	0	---	0.00	30.133 
06:15	58.6	58.6	58.6	90	55.7	0	0	---	0.00	30.134 
06:20	58.6	58.6	58.6	90	55.7	0	0	---	0.00	30.134 
06:25	58.4	58.4	58.4	90	55.5	0	0	---	0.00	30.134 
06:30	58.4	58.4	58.4	89	55.2	0	0	---	0.00	30.135 
06:35	58.4	58.4	58.4	89	55.2	0	1	68	0.00	30.135 
06:40	58.3	58.3	58.3	89	55.1	0	0	---	0.00	30.135 
06:45	58.3	58.3	58.3	90	55.4	0	2	68	0.00	30.136 
06:50	58.6	58.6	58.6	89	55.4	0	1	68	0.00	30.136 
06:55	58.6	58.6	58.6	88	55.1	0	1	68	0.00	30.136 
07:00	58.7	58.7	58.7	88	55.2	0	1	68	0.00	30.135 
07:05	58.7	58.7	58.7	88	55.2	0	0	---	0.00	30.135 
07:10	58.7	58.7	58.7	88	55.2	0	0	---	0.00	30.135 
07:15	58.9	58.9	58.9	88	55.3	0	2	68	0.00	30.137 
07:20	58.9	58.9	58.9	88	55.3	0	0	---	0.00	30.137 
07:25	58.9	58.9	58.9	88	55.3	0	1	68	0.00	30.137 
07:30	59.0	59.0	59.0	88	55.4	0	3	68	0.00	30.137 
07:35	59.5	59.5	59.5	86	55.3	0	1	68	0.00	30.137 
07:40	60.1	60.1	60.1	85	55.6	0	1	68	0.00	30.137 
07:45	60.7	60.7	60.7	83	55.5	1	2	68	0.00	30.134 
07:50	61.5	61.5	61.5	81	55.6	1	4	68	0.00	30.134 
07:55	62.0	62.0	62.0	80	55.8	1	5	112	0.00	30.134 
08:00	62.4	62.4	62.4	80	56.1	1	3	90	0.00	30.133 
08:05	62.7	62.7	62.7	80	56.4	1	2	90	0.00	30.133 
08:10	63.1	63.1	63.1	79	56.5	2	3	90	0.00	30.133 
08:15	63.2	63.2	63.2	78	56.2	1	4	90	0.00	30.134 
08:20	63.7	63.7	63.7	78	56.7	1	3	90	0.00	30.134 
08:25	64.3	64.3	64.3	76	56.6	1	3	90	0.00	30.134 
08:30	64.8	64.8	64.8	76	57.0	1	2	90	0.00	30.135 
08:35	65.3	65.3	65.3	77	57.9	1	3	90	0.00	30.135 
08:40	65.5	65.5	65.5	75	57.4	1	3	90	0.00	30.135 
08:45	65.8	65.8	65.8	75	57.6	1	3	90	0.00	30.137 
08:50	66.1	66.1	66.1	74	57.6	2	4	90	0.00	30.137 
08:55	66.1	66.1	66.1	74	57.6	2	3	90	0.00	30.137 
09:00	66.6	66.6	66.6	74	58.0	1	3	90	0.00	30.141 
09:05	66.9	66.9	66.9	72	57.6	1	3	90	0.00	30.141 
09:10	67.1	67.1	67.1	73	58.1	2	4	90	0.00	30.141 
09:15	67.6	67.6	67.6	73	58.6	1	3	90	0.00	30.141 
09:20	68.1	68.1	68.1	71	58.3	1	3	90	0.00	30.141 
09:25	68.8	68.8	68.8	70	58.6	2	5	90	0.00	30.141 
09:30	69.3	69.3	69.3	69	58.7	1	3	90	0.00	30.137 
09:35	69.8	69.8	69.8	69	59.2	1	3	90	0.00	30.137 
09:40	70.3	70.3	70.3	67	58.8	1	4	68	0.00	30.137 
09:45	71.1	71.1	71.1	66	59.2	1	2	270	0.00	30.133 
09:50	71.6	71.6	71.6	66	59.6	1	4	90	0.00	30.133 
09:55	72.1	72.1	72.1	64	59.2	2	3	90	0.00	30.133 
10:00	72.5	72.5	72.5	65	60.0	1	4	90	0.00	30.130 
10:05	72.5	72.5	72.5	65	60.0	2	5	90	0.00	30.130 
10:10	72.8	72.8	72.8	63	59.5	2	4	90	0.00	30.130 
10:15	73.2	73.2	73.2	63	59.8	1	3	90	0.00	30.128 
10:20	73.5	73.5	73.5	63	60.1	2	5	90	0.00	30.128 
10:25	73.7	73.7	73.7	63	60.3	2	4	90	0.00	30.128 
10:30	73.9	73.9	73.9	64	60.9	2	4	90	0.00	30.124 
10:35	74.2	74.2	74.2	64	61.2	1	5	68	0.00	30.124 
10:40	74.7	74.7	74.7	62	60.8	2	4	90	0.00	30.124 
10:45	75.1	75.1	77.4	61	60.7	3	5	90	0.00	30.120 
10:50	75.6	75.6	77.7	61	61.2	2	5	112	0.00	30.120 
10:55	76.3	76.3	78.2	60	61.4	1	4	112	0.00	30.120 
11:00	76.8	76.8	78.6	58	60.9	2	6	90	0.00	30.120 
11:05	77.2	77.2	78.9	58	61.3	1	3	90	0.00	30.120 
11:10	77.9	77.9	79.5	58	61.9	1	3	90	0.00	30.120 
11:15	78.5	78.5	79.9	56	61.5	2	4	112	0.00	30.127 
11:20	78.5	78.5	80.0	57	62.0	2	5	90	0.00	30.127 
11:25	78.3	78.3	79.8	56	61.3	2	5	90	0.00	30.127 
11:30	78.8	78.8	80.3	57	62.3	1	3	112	0.00	30.129 
11:35	79.2	79.2	80.5	55	61.6	1	4	112	0.00	30.129 
11:40	79.6	79.6	81.0	56	62.5	1	4	112	0.00	30.129 
11:45	79.9	79.9	81.1	54	61.7	2	5	90	0.00	30.121 
11:50	79.8	79.8	81.0	54	61.7	2	6	90	0.00	30.121 
11:55	79.9	79.9	80.9	52	60.7	2	5	135	0.00	30.121 
12:00	80.3	80.3	81.3	52	61.0	2	6	135	0.00	30.123 
12:05	80.3	80.3	81.3	52	61.0	3	7	90	0.00	30.123 
12:10	80.5	80.5	81.5	52	61.2	2	6	90	0.00	30.123 
12:15	81.1	81.1	82.2	53	62.3	3	10	90	0.00	30.116 
12:20	81.2	81.2	81.9	50	60.8	3	5	90	0.00	30.116 
12:25	80.7	80.7	81.3	49	59.7	3	6	90	0.00	30.116 
12:30	80.7	80.7	81.6	51	60.9	1	5	112	0.00	30.115 
12:35	81.2	81.2	81.8	49	60.2	2	5	90	0.00	30.115 
12:40	81.8	81.8	82.0	46	59.0	3	7	90	0.00	30.115 
12:45	81.8	81.8	82.3	48	60.2	3	6	90	0.00	30.113 
12:50	82.6	82.6	82.7	45	59.1	1	4	90	0.00	30.113 
12:55	83.4	83.4	83.2	43	58.5	1	6	112	0.00	30.113 
13:00	83.2	83.2	83.3	45	59.6	2	7	90	0.00	30.110 
13:05	83.2	83.2	83.0	43	58.3	3	5	90	0.00	30.110 
13:10	83.0	83.0	82.8	43	58.2	3	5	90	0.00	30.110 
13:15	83.0	83.0	83.1	45	59.4	2	6	90	0.00	30.111 
13:20	83.6	83.6	83.5	44	59.3	2	4	68	0.00	30.111 
13:25	84.1	84.1	83.7	42	58.5	2	5	112	0.00	30.111 
13:30	84.0	84.0	83.8	43	59.1	2	6	68	0.00	30.102 
13:35	84.1	84.1	83.9	43	59.2	2	5	248	0.00	30.102 
13:40	84.1	84.1	83.6	41	57.8	2	4	112	0.00	30.102 
13:45	83.6	83.6	83.0	41	57.4	2	4	248	0.00	30.098 
13:50	83.8	83.8	83.2	41	57.6	2	5	90	0.00	30.098 
13:55	84.0	84.0	83.8	43	59.1	1	5	90	0.00	30.098 
14:00	84.1	84.1	83.7	42	58.5	2	5	90	0.00	30.092 
14:05	84.1	84.1	83.7	42	58.5	2	4	112	0.00	30.092 
14:10	83.8	83.8	83.6	43	58.9	2	6	90	0.00	30.092 
14:15	83.6	83.6	83.4	43	58.7	2	5	90	0.00	30.090 
14:20	84.1	84.1	84.1	44	59.8	1	4	90	0.00	30.090 
14:25	84.1	84.1	83.9	43	59.2	1	4	90	0.00	30.090 
14:30	84.0	84.0	83.3	40	57.0	2	3	90	0.00	30.089 
14:35	84.0	84.0	83.8	43	59.1	2	5	112	0.00	30.089 
14:40	83.8	83.8	83.7	44	59.5	3	6	90	0.00	30.089 
14:45	84.0	84.0	83.6	42	58.4	2	5	90	0.00	30.080 
14:50	84.1	84.1	83.7	42	58.5	2	6	112	0.00	30.080 
14:55	84.3	84.3	83.8	41	58.0	2	5	112	0.00	30.080 
15:00	84.3	84.3	83.9	42	58.7	1	3	90	0.00	30.082 
15:05	84.1	84.1	83.9	43	59.2	1	3	90	0.00	30.082 
15:10	84.0	84.0	83.8	43	59.1	0	2	112	0.00	30.082 
15:15	83.8	83.8	83.7	44	59.5	0	2	112	0.00	30.079 
15:20	83.6	83.6	83.4	43	58.7	1	3	112	0.00	30.079 
15:25	84.1	84.1	84.3	45	60.4	1	4	112	0.00	30.079 
15:30	84.9	84.9	84.4	41	58.5	1	4	68	0.00	30.068 
15:35	85.1	85.1	84.8	42	59.4	1	5	112	0.00	30.068 
15:40	84.7	84.7	84.6	43	59.7	2	6	90	0.00	30.068 
15:45	84.9	84.9	84.8	43	59.9	2	5	90	0.00	30.059 
15:50	84.7	84.7	84.4	42	59.0	3	6	90	0.00	30.059 
15:55	84.7	84.7	84.4	42	59.0	2	6	112	0.00	30.059 
16:00	84.9	84.9	84.8	43	59.9	2	4	90	0.00	30.055 
16:05	84.7	84.7	84.2	41	58.4	2	5	90	0.00	30.055 
16:10	84.3	84.3	83.9	42	58.7	1	3	112	0.00	30.055 
16:15	84.5	84.5	84.1	42	58.9	2	5	112	0.00	30.050 
16:20	84.5	84.5	84.0	41	58.2	2	5	90	0.00	30.050 
16:25	84.3	84.3	83.6	40	57.3	2	6	112	0.00	30.050 
16:30	84.3	84.3	83.8	41	58.0	2	5	112	0.00	30.042 
16:35	84.5	84.5	84.1	42	58.9	2	5	90	0.00	30.042 
16:40	84.5	84.5	84.0	41	58.2	2	5	90	0.00	30.042 
16:45	84.5	84.5	84.1	42	58.9	1	5	112	0.00	30.040 
16:50	84.9	84.9	84.0	39	57.1	2	5	90	0.00	30.040 
16:55	84.9	84.9	84.0	39	57.1	2	4	112	0.00	30.040 
17:00	84.9	84.9	84.0	39	57.1	2	4	90	0.00	30.039 
17:05	84.5	84.5	84.0	41	58.2	2	4	112	0.00	30.039 
17:10	84.0	84.0	83.6	42	58.4	2	6	90	0.00	30.039 
17:15	83.6	83.6	83.2	42	58.0	1	3	90	0.00	30.040 
17:20	83.4	83.4	83.0	42	57.9	1	4	158	0.00	30.040 
17:25	83.4	83.4	83.2	43	58.5	1	3	90	0.00	30.040 
17:30	83.4	83.4	83.3	44	59.2	1	3	90	0.00	30.039 
17:35	83.6	83.6	83.4	43	58.7	2	4	90	0.00	30.039 
17:40	83.8	83.8	83.6	43	58.9	2	5	90	0.00	30.039 
17:45	84.0	84.0	83.8	43	59.1	2	6	90	0.00	30.039 
17:50	83.8	83.8	83.7	44	59.5	2	5	68	0.00	30.039 
17:55	83.8	83.8	83.7	44	59.5	2	7	90	0.00	30.039 
18:00	83.8	83.8	83.6	43	58.9	2	4	90	0.00	30.040 
18:05	83.8	83.8	83.9	45	60.2	2	7	90	0.00	30.040 
18:10	83.8	83.8	83.6	43	58.9	2	6	90	0.00	30.040 
18:15	83.8	83.8	83.6	43	58.9	1	3	68	0.00	30.040 
18:20	83.6	83.6	83.4	43	58.7	1	6	68	0.00	30.040 
18:25	83.6	83.6	83.4	43	58.7	2	4	90	0.00	30.040 
18:30	83.4	83.4	83.2	43	58.5	1	3	112	0.00	30.039 
18:35	83.4	83.4	83.2	43	58.5	1	3	112	0.00	30.039 
18:40	83.0	83.0	82.9	44	58.8	1	4	90	0.00	30.039 
18:45	83.0	83.0	82.9	44	58.8	0	2	90	0.00	30.035 
18:50	83.0	83.0	82.9	44	58.8	0	2	90	0.00	30.035 
18:55	83.0	83.0	83.1	45	59.4	1	3	112	0.00	30.035 
19:00	82.6	82.6	82.7	45	59.1	1	3	112	0.00	30.029 
19:05	82.4	82.4	82.6	46	59.5	2	5	90	0.00	30.029 
19:10	82.0	82.0	82.1	45	58.5	2	5	90	0.00	30.029 
19:15	82.0	82.0	82.3	47	59.8	1	4	90	0.00	30.024 
19:20	82.0	82.0	82.2	46	59.1	1	4	90	0.00	30.024 
19:25	81.8	81.8	82.1	47	59.6	1	3	135	0.00	30.024 
19:30	81.6	81.6	82.1	48	60.0	0	2	135	0.00	30.022 
19:35	81.4	81.4	81.9	48	59.8	1	3	135	0.00	30.022 
19:40	81.1	81.1	81.7	49	60.1	1	3	112	0.00	30.022 
19:45	80.9	80.9	81.5	49	59.9	1	3	112	0.00	30.023 
19:50	80.9	80.9	81.5	49	59.9	1	3	112	0.00	30.023 
19:55	80.7	80.7	81.3	49	59.7	1	2	112	0.00	30.023 
20:00	80.7	80.7	81.4	50	60.3	1	2	112	0.00	30.021 
20:05	80.5	80.5	81.3	50	60.1	0	3	112	0.00	30.021 
20:10	80.3	80.3	81.1	50	59.9	1	3	112	0.00	30.021 
20:15	80.1	80.1	80.9	50	59.8	1	3	90	0.00	30.020 
20:20	79.9	79.9	80.8	51	60.1	1	2	90	0.00	30.020 
20:25	79.8	79.8	80.8	52	60.6	0	1	90	0.00	30.020 
20:30	79.6	79.6	80.7	53	60.9	0	2	90	0.00	30.021 
20:35	79.2	79.2	80.4	54	61.1	0	0	---	0.00	30.021 
20:40	78.6	78.6	79.9	54	60.5	0	0	---	0.00	30.021 
20:45	78.3	78.3	79.8	56	61.3	0	1	90	0.00	30.021 
20:50	78.1	78.1	79.6	56	61.1	0	0	---	0.00	30.021 
20:55	77.7	77.7	79.3	57	61.2	0	0	---	0.00	30.021 
21:00	77.6	77.6	79.2	56	60.6	0	2	90	0.00	30.027 
21:05	77.6	77.6	79.2	56	60.6	0	1	90	0.00	30.027 
21:10	77.4	77.4	79.1	57	61.0	0	0	---	0.00	30.027 
21:15	77.4	77.4	79.0	56	60.5	0	1	90	0.00	30.030 
21:20	77.2	77.2	78.9	57	60.8	0	0	---	0.00	30.030 
21:25	76.8	76.8	78.6	58	60.9	0	0	---	0.00	30.030 
21:30	76.7	76.7	78.5	59	61.3	0	0	---	0.00	30.032 
21:35	76.5	76.5	78.4	60	61.6	0	0	---	0.00	30.032 
21:40	76.1	76.1	78.1	60	61.2	0	0	---	0.00	30.032 
21:45	76.0	76.0	78.0	61	61.6	0	0	---	0.00	30.037 
21:50	75.8	75.8	77.8	62	61.8	0	0	---	0.00	30.037 
21:55	75.6	75.6	77.7	62	61.6	0	0	---	0.00	30.037 
22:00	75.4	75.4	77.5	63	61.9	0	0	---	0.00	30.040 
22:05	75.4	75.4	77.5	63	61.9	0	1	90	0.00	30.040 
22:10	75.6	75.6	77.6	63	62.1	0	0	---	0.00	30.040 
22:15	75.6	75.6	77.7	62	61.6	0	0	---	0.00	30.041 
22:20	75.4	75.4	77.5	62	61.5	0	0	---	0.00	30.041 
22:25	75.3	75.3	77.5	62	61.4	0	0	---	0.00	30.041 
22:30	75.1	75.1	77.3	63	61.6	0	0	---	0.00	30.046 
22:35	74.9	74.9	74.9	63	61.4	0	0	---	0.00	30.046 
22:40	74.7	74.7	74.7	64	61.7	0	0	---	0.00	30.046 
22:45	74.6	74.6	74.6	65	62.0	0	0	---	0.00	30.045 
22:50	74.4	74.4	74.4	66	62.3	0	0	---	0.00	30.045 
22:55	74.2	74.2	74.2	66	62.1	0	0	---	0.00	30.045 
23:00	74.0	74.0	74.0	66	61.9	0	0	---	0.00	30.042 
23:05	74.0	74.0	74.0	67	62.3	0	0	---	0.00	30.042 
23:10	73.9	73.9	73.9	67	62.2	0	0	---	0.00	30.042 
23:15	73.7	73.7	73.7	68	62.5	0	0	---	0.00	30.040 
23:20	73.7	73.7	73.7	68	62.5	0	0	---	0.00	30.040 
23:25	73.5	73.5	73.5	67	61.9	0	0	---	0.00	30.040 
23:30	73.5	73.5	73.5	67	61.9	0	0	---	0.00	30.038 
23:35	73.3	73.3	73.3	67	61.7	0	0	---	0.00	30.038 
23:40	73.3	73.3	73.3	67	61.7	0	0	---	0.00	30.038 
23:45	73.3	73.3	73.3	66	61.2	0	0	---	0.00	30.038 
23:50	73.3	73.3	73.3	66	61.2	0	0	---	0.00	30.038 
23:55	73.3	73.3	73.3	66	61.2	0	0	---	0.00	30.038 

CoCoRaHS
IN-AL-39
A2 Web Hosting
Creative Commons License
GoDaddy
Look for:

loaded 2017-10-18 07:39:27 • last modified 2010-11-18 10:43:29
Privacy PolicyDisclaimer
• wx.awcolley.com is powered by PmWiki v.2002016 •
• all content (unless otherwise noted) © 2017 A W Colley